LSGC weather

Les Eplatures Airport
La Chaux-de-Fonds, Canton of Neuch√Ętel, Switzerland

Public forecast

Using degrees Celsius for public forecast. Weather courtesy of forecast.io.

Current aviation weather report (METAR) for Les Eplatures Airport

Retrieved 2019/11/19 20:20 UTC (4 minutes ago):

LSGC 192020Z AUTO 03004KT 010V070 9999 FEW011 M02/M03 Q1015

Closest aviation forecast (TAF) to Les Eplatures Airport

Closest forecast is Payerne Air Base, 15.3 nm (28.3 km) SSE. Retrieved 2019/11/19 17:00 UTC (3 hours ago):

TAF LSMP 191625Z 1917/2023 05005KT 9999 BKN030 BECMG 1918/1920 BKN009 BECMG 2012/2014 SCT010